Time;durP1;ratioP1;P1;durP2;ratioP2;P2;SDS_P1;SDS_P2;PMS_P1;PMS_P2;Temp;Humidity;BMP_temperature;BMP_pressure;BME280_temperature;BME280_humidity;BME280_pressure;Samples;Min_cycle;Max_cycle;Signal;HPM_P1;HPM_P2
2024/01/19 00:00:51;;;;;;;0.20;0.20;;;-0.20;99.90;;;;;;5076105;28;20524;-72
2024/01/19 00:03:18;;;;;;;0.20;0.20;;;-0.30;99.90;;;;;;5064431;28;20531;-73
2024/01/19 00:05:45;;;;;;;0.10;0.10;;;-0.30;99.90;;;;;;5069403;28;20052;-72
2024/01/19 00:08:12;;;;;;;0.10;0.10;;;-0.20;99.90;;;;;;5061973;28;20045;-72
2024/01/19 00:10:40;;;;;;;0.10;0.10;;;0.10;99.90;;;;;;5070861;28;20143;-73
2024/01/19 00:13:07;;;;;;;0.10;0.10;;;0.30;99.90;;;;;;5059276;28;20049;-72
2024/01/19 00:15:34;;;;;;;0.20;0.20;;;0.60;99.90;;;;;;5037466;28;20140;-73
2024/01/19 00:18:05;;;;;;;0.10;0.10;;;0.80;99.90;;;;;;5067976;28;20052;-73
2024/01/19 00:20:32;;;;;;;0.10;0.10;;;0.70;99.90;;;;;;5057655;28;20057;-73
2024/01/19 00:23:00;;;;;;;0.20;0.20;;;0.70;99.90;;;;;;5052391;28;20187;-73
2024/01/19 00:25:27;;;;;;;0.10;0.10;;;0.60;99.90;;;;;;5064573;28;20044;-72
2024/01/19 00:27:54;;;;;;;0.13;0.13;;;0.50;99.90;;;;;;5067494;28;20053;-73
2024/01/19 00:30:21;;;;;;;0.10;0.10;;;0.50;99.90;;;;;;5067361;28;20048;-73
2024/01/19 00:32:48;;;;;;;0.10;0.10;;;0.40;99.90;;;;;;5050301;28;20041;-74
2024/01/19 00:35:16;;;;;;;0.10;0.10;;;0.40;99.90;;;;;;5051328;28;20516;-73
2024/01/19 00:37:46;;;;;;;0.10;0.10;;;0.30;99.90;;;;;;5051657;28;20071;-73
2024/01/19 00:40:13;;;;;;;0.10;0.10;;;0.40;99.90;;;;;;5065513;28;20052;-73
2024/01/19 00:42:41;;;;;;;0.20;0.20;;;0.50;99.90;;;;;;5066600;28;20049;-72
2024/01/19 00:45:09;;;;;;;0.10;0.10;;;0.60;99.90;;;;;;5050135;28;20074;-73
2024/01/19 00:47:37;;;;;;;0.10;0.10;;;0.50;99.90;;;;;;5063303;28;20573;-73
2024/01/19 00:50:06;;;;;;;0.10;0.10;;;0.50;99.90;;;;;;5074450;28;20131;-73
2024/01/19 00:52:33;;;;;;;0.10;0.10;;;0.40;99.90;;;;;;5058226;28;20053;-73
2024/01/19 00:55:00;;;;;;;0.15;0.15;;;0.40;99.90;;;;;;5073585;28;20083;-73
2024/01/19 00:57:27;;;;;;;0.20;0.20;;;0.40;99.90;;;;;;5068685;28;20049;-73
2024/01/19 00:59:55;;;;;;;0.20;0.20;;;0.30;99.90;;;;;;5067489;28;20041;-73
2024/01/19 01:02:27;;;;;;;0.20;0.20;;;0.20;99.90;;;;;;5068836;28;20118;-73
2024/01/19 01:04:56;;;;;;;0.10;0.10;;;0.20;99.90;;;;;;5060208;28;20045;-73
2024/01/19 01:07:23;;;;;;;0.10;0.10;;;0.30;99.90;;;;;;5068774;28;20041;-73
2024/01/19 01:09:51;;;;;;;0.10;0.10;;;0.30;99.90;;;;;;5068711;28;20103;-73
2024/01/19 01:12:18;;;;;;;0.10;0.10;;;0.30;99.90;;;;;;5067543;28;20525;-72
2024/01/19 01:14:47;;;;;;;0.20;0.20;;;0.40;99.90;;;;;;5046637;28;20441;-73
2024/01/19 01:17:14;;;;;;;0.20;0.20;;;0.50;99.90;;;;;;5069900;28;20467;-73
2024/01/19 01:19:42;;;;;;;0.10;0.10;;;0.50;99.90;;;;;;5051892;28;20513;-73
2024/01/19 01:22:12;;;;;;;0.10;0.10;;;0.50;99.90;;;;;;5048547;28;20546;-73
2024/01/19 01:24:40;;;;;;;0.10;0.10;;;0.50;99.90;;;;;;5063027;28;20610;-73
2024/01/19 01:27:08;;;;;;;0.10;0.10;;;0.50;99.90;;;;;;5062622;28;20436;-73
2024/01/19 01:29:35;;;;;;;0.20;0.20;;;0.50;99.90;;;;;;5049716;28;20045;-73
2024/01/19 01:32:02;;;;;;;0.20;0.20;;;0.60;99.90;;;;;;5047733;28;20044;-73
2024/01/19 01:34:30;;;;;;;0.10;0.10;;;0.60;99.90;;;;;;5076491;28;23005;-73
2024/01/19 01:36:57;;;;;;;0.20;0.20;;;0.60;99.90;;;;;;5053736;28;20126;-73
2024/01/19 01:39:24;;;;;;;0.10;0.10;;;0.60;99.90;;;;;;5069455;28;20087;-72
2024/01/19 01:41:52;;;;;;;0.10;0.10;;;0.50;99.90;;;;;;5080051;28;20365;-73
2024/01/19 01:44:22;;;;;;;0.17;0.17;;;0.40;99.90;;;;;;5049281;28;20044;-73
2024/01/19 01:46:49;;;;;;;0.10;0.10;;;0.30;99.90;;;;;;5067967;28;20049;-73
2024/01/19 01:49:16;;;;;;;0.20;0.20;;;0.20;99.90;;;;;;5057984;28;20508;-73
2024/01/19 01:51:45;;;;;;;0.10;0.10;;;0.10;99.90;;;;;;5077892;28;20056;-72
2024/01/19 01:54:14;;;;;;;0.15;0.15;;;0.00;99.90;;;;;;5052826;28;20072;-73
2024/01/19 01:56:41;;;;;;;0.15;0.15;;;-0.10;99.90;;;;;;5072998;28;20047;-72
2024/01/19 01:59:09;;;;;;;0.10;0.10;;;-0.10;99.90;;;;;;5068698;28;20559;-73
2024/01/19 02:01:37;;;;;;;0.20;0.20;;;-0.20;99.90;;;;;;5097325;28;20477;-73
2024/01/19 02:04:08;;;;;;;0.20;0.20;;;-0.40;99.90;;;;;;5051572;28;20049;-73
2024/01/19 02:06:39;;;;;;;0.13;0.13;;;-0.40;99.90;;;;;;5069427;28;20530;-73
2024/01/19 02:09:07;;;;;;;0.20;0.20;;;-0.50;99.90;;;;;;5078692;28;20048;-73
2024/01/19 02:11:34;;;;;;;0.15;0.15;;;-0.60;99.90;;;;;;5056600;28;20578;-74
2024/01/19 02:14:05;;;;;;;0.13;0.13;;;-0.70;99.90;;;;;;5037599;28;20052;-73
2024/01/19 02:16:33;;;;;;;0.10;0.10;;;-0.70;99.90;;;;;;5048006;28;20140;-74
2024/01/19 02:19:00;;;;;;;0.30;0.30;;;-0.70;99.90;;;;;;5060320;28;20041;-73
2024/01/19 02:21:28;;;;;;;0.20;0.20;;;-0.70;99.90;;;;;;5074683;28;20049;-73
2024/01/19 02:24:03;;;;;;;0.20;0.20;;;-0.70;99.90;;;;;;5068720;28;20055;-73
2024/01/19 02:26:34;;;;;;;0.20;0.20;;;-0.70;99.90;;;;;;5063198;28;20691;-73
2024/01/19 02:29:01;;;;;;;0.20;0.20;;;-0.70;99.90;;;;;;5091033;28;20115;-73
2024/01/19 02:31:28;;;;;;;0.13;0.13;;;-0.70;99.90;;;;;;5073786;28;20041;-73
2024/01/19 02:33:56;;;;;;;0.20;0.20;;;-0.60;99.90;;;;;;5068023;28;20508;-73
2024/01/19 02:36:23;;;;;;;0.20;0.20;;;-0.60;99.90;;;;;;5064436;28;20041;-74
2024/01/19 02:38:50;;;;;;;0.10;0.10;;;-0.70;99.90;;;;;;5056769;28;20045;-74
2024/01/19 02:41:17;;;;;;;0.17;0.17;;;-0.60;99.90;;;;;;5082641;28;20053;-74
2024/01/19 02:43:44;;;;;;;0.15;0.15;;;-0.60;99.90;;;;;;5068246;28;20045;-74
2024/01/19 02:46:14;;;;;;;0.10;0.10;;;-0.50;99.90;;;;;;5069329;28;20060;-74
2024/01/19 02:48:42;;;;;;;0.10;0.10;;;-0.60;99.90;;;;;;5057791;28;20054;-74
2024/01/19 02:51:09;;;;;;;0.10;0.10;;;-0.60;99.90;;;;;;5062547;28;20128;-74
2024/01/19 02:53:36;;;;;;;0.20;0.20;;;-0.50;99.90;;;;;;5082220;28;20076;-74
2024/01/19 02:56:04;;;;;;;0.20;0.20;;;-0.40;99.90;;;;;;5061997;28;20050;-74
2024/01/19 02:58:31;;;;;;;0.15;0.15;;;-0.30;99.90;;;;;;5071496;28;20064;-73
2024/01/19 03:00:59;;;;;;;0.20;0.20;;;-0.20;99.90;;;;;;5077388;28;20048;-74
2024/01/19 03:03:27;;;;;;;0.10;0.10;;;-0.10;99.90;;;;;;5068885;28;20046;-73
2024/01/19 03:05:54;;;;;;;0.20;0.20;;;0.00;99.90;;;;;;5075684;28;20452;-74
2024/01/19 03:08:22;;;;;;;0.10;0.10;;;0.00;99.90;;;;;;5071963;28;20077;-74
2024/01/19 03:10:49;;;;;;;0.15;0.15;;;0.10;99.90;;;;;;5072862;28;20129;-74
2024/01/19 03:13:17;;;;;;;0.13;0.13;;;0.20;99.90;;;;;;5063584;28;20087;-74
2024/01/19 03:15:44;;;;;;;0.20;0.20;;;0.20;99.90;;;;;;5070180;28;20057;-74
2024/01/19 03:18:12;;;;;;;0.10;0.10;;;0.20;99.90;;;;;;5040741;28;20049;-74
2024/01/19 03:20:39;;;;;;;0.10;0.10;;;0.20;99.90;;;;;;5058155;28;20564;-74
2024/01/19 03:23:07;;;;;;;0.10;0.10;;;0.20;99.90;;;;;;5076205;28;20046;-74
2024/01/19 03:25:34;;;;;;;0.10;0.10;;;0.10;99.90;;;;;;5053740;28;20053;-74
2024/01/19 03:28:01;;;;;;;0.10;0.10;;;0.10;99.90;;;;;;5052526;28;20045;-74
2024/01/19 03:30:28;;;;;;;0.10;0.10;;;0.00;99.90;;;;;;5068787;28;20143;-74
2024/01/19 03:32:56;;;;;;;0.10;0.10;;;-0.10;99.90;;;;;;5059179;28;20049;-74
2024/01/19 03:35:23;;;;;;;0.10;0.10;;;-0.20;99.90;;;;;;5041780;28;20045;-74
2024/01/19 03:37:50;;;;;;;0.10;0.10;;;-0.20;99.90;;;;;;5053085;28;20054;-74
2024/01/19 03:40:17;;;;;;;0.10;0.10;;;-0.20;99.90;;;;;;5065761;28;20045;-74
2024/01/19 03:42:45;;;;;;;0.20;0.20;;;-0.30;99.90;;;;;;5039005;28;20061;-74
2024/01/19 03:45:12;;;;;;;0.20;0.20;;;-0.30;99.90;;;;;;5070557;28;20107;-74
2024/01/19 03:47:39;;;;;;;0.20;0.20;;;-0.20;99.90;;;;;;5038650;28;20505;-74
2024/01/19 03:50:08;;;;;;;0.20;0.20;;;-0.20;99.90;;;;;;5054745;28;20068;-74
2024/01/19 03:52:37;;;;;;;0.20;0.20;;;-0.20;99.90;;;;;;5061222;28;20056;-74
2024/01/19 03:55:05;;;;;;;0.20;0.20;;;-0.20;99.90;;;;;;5055398;28;20126;-74
2024/01/19 03:57:32;;;;;;;0.20;0.20;;;-0.30;99.90;;;;;;5072850;28;20068;-74
2024/01/19 03:59:59;;;;;;;0.10;0.10;;;-0.30;99.90;;;;;;5051017;28;20060;-74
2024/01/19 04:02:27;;;;;;;0.10;0.10;;;-0.20;99.90;;;;;;5061916;28;20046;-74
2024/01/19 04:04:54;;;;;;;0.20;0.20;;;-0.10;99.90;;;;;;5040889;28;20037;-74
2024/01/19 04:07:21;;;;;;;0.10;0.10;;;-0.10;99.90;;;;;;5068421;28;20488;-74
2024/01/19 04:09:48;;;;;;;0.20;0.20;;;0.10;99.90;;;;;;5064431;28;20041;-74
2024/01/19 04:12:17;;;;;;;0.10;0.10;;;0.20;99.90;;;;;;5061108;28;20053;-73
2024/01/19 04:14:45;;;;;;;0.10;0.10;;;0.30;99.90;;;;;;5074236;28;20053;-73
2024/01/19 04:17:12;;;;;;;0.10;0.10;;;0.40;99.90;;;;;;5048442;28;20482;-73
2024/01/19 04:19:40;;;;;;;0.10;0.10;;;0.40;99.90;;;;;;5061250;28;20053;-73
2024/01/19 04:22:08;;;;;;;0.20;0.20;;;0.40;99.90;;;;;;5066067;28;20115;-73
2024/01/19 04:24:35;;;;;;;0.10;0.10;;;0.50;99.90;;;;;;5068531;28;20047;-73
2024/01/19 04:27:02;;;;;;;0.10;0.10;;;0.50;99.90;;;;;;5068754;28;20077;-73
2024/01/19 04:29:29;;;;;;;0.20;0.20;;;0.60;99.90;;;;;;5073074;28;20049;-73
2024/01/19 04:31:57;;;;;;;0.10;0.10;;;0.50;99.90;;;;;;5074798;28;20056;-73
2024/01/19 04:34:24;;;;;;;0.10;0.10;;;0.50;99.90;;;;;;5063084;28;20500;-72
2024/01/19 04:36:51;;;;;;;0.10;0.10;;;0.40;99.90;;;;;;5074080;28;22253;-73
2024/01/19 04:39:18;;;;;;;0.20;0.20;;;0.30;99.90;;;;;;5071251;28;20584;-73
2024/01/19 04:41:45;;;;;;;0.10;0.10;;;0.20;99.90;;;;;;5022215;28;20110;-73
2024/01/19 04:44:14;;;;;;;0.10;0.10;;;0.10;99.90;;;;;;5064111;28;20159;-73
2024/01/19 04:46:41;;;;;;;0.10;0.10;;;0.00;99.90;;;;;;5072191;28;20053;-73
2024/01/19 04:49:08;;;;;;;0.10;0.10;;;-0.10;99.90;;;;;;5067303;28;20563;-73
2024/01/19 04:51:36;;;;;;;0.20;0.20;;;-0.20;99.90;;;;;;5073921;28;20057;-73
2024/01/19 04:54:03;;;;;;;0.17;0.17;;;-0.30;99.90;;;;;;5039795;28;20045;-73
2024/01/19 04:56:31;;;;;;;0.10;0.10;;;-0.30;99.90;;;;;;5035524;28;20052;-73
2024/01/19 04:58:58;;;;;;;0.20;0.20;;;-0.40;99.90;;;;;;5053923;28;20606;-73
2024/01/19 05:01:26;;;;;;;0.10;0.10;;;-0.40;99.90;;;;;;5053465;28;20100;-74
2024/01/19 05:03:53;;;;;;;0.10;0.10;;;-0.50;99.90;;;;;;5073393;28;20037;-72
2024/01/19 05:06:20;;;;;;;0.20;0.20;;;-0.50;99.90;;;;;;5044425;28;20527;-73
2024/01/19 05:08:48;;;;;;;0.10;0.10;;;-0.60;99.90;;;;;;5055084;28;20045;-74
2024/01/19 05:11:15;;;;;;;0.10;0.10;;;-0.60;99.90;;;;;;5070102;28;20544;-73
2024/01/19 05:13:43;;;;;;;0.10;0.10;;;-0.60;99.90;;;;;;5079379;28;20557;-74
2024/01/19 05:16:10;;;;;;;0.20;0.20;;;-0.70;99.90;;;;;;5051406;28;20092;-74
2024/01/19 05:18:38;;;;;;;0.20;0.20;;;-0.80;99.90;;;;;;5065347;28;20053;-73
2024/01/19 05:21:06;;;;;;;0.10;0.10;;;-0.80;99.90;;;;;;5069964;28;20053;-74
2024/01/19 05:23:33;;;;;;;0.20;0.20;;;-0.90;99.90;;;;;;5077169;28;20239;-74
2024/01/19 05:26:08;;;;;;;0.20;0.20;;;-0.90;99.90;;;;;;5057397;28;20074;-74
2024/01/19 05:28:36;;;;;;;0.10;0.10;;;-1.00;99.90;;;;;;5071114;28;20052;-74
2024/01/19 05:31:04;;;;;;;0.15;0.15;;;-1.10;99.90;;;;;;5072328;28;20429;-74
2024/01/19 05:33:32;;;;;;;0.20;0.20;;;-1.20;99.90;;;;;;5064037;28;20044;-74
2024/01/19 05:36:02;;;;;;;0.20;0.20;;;-1.30;99.90;;;;;;5065722;28;20114;-74
2024/01/19 05:38:29;;;;;;;0.20;0.20;;;-1.30;99.90;;;;;;5069415;28;20051;-74
2024/01/19 05:41:01;;;;;;;0.10;0.10;;;-1.40;99.90;;;;;;5061005;28;20051;-74
2024/01/19 05:43:28;;;;;;;0.20;0.20;;;-1.50;99.90;;;;;;5070947;28;20140;-74
2024/01/19 05:45:55;;;;;;;0.10;0.10;;;-1.50;99.90;;;;;;5051247;28;20049;-74
2024/01/19 05:48:25;;;;;;;0.10;0.10;;;-1.50;99.90;;;;;;5075804;28;20412;-73
2024/01/19 05:50:52;;;;;;;0.20;0.20;;;-1.50;99.90;;;;;;5077759;28;20052;-73
2024/01/19 05:53:20;;;;;;;0.20;0.20;;;-1.50;99.90;;;;;;5072917;28;20124;-73
2024/01/19 05:55:47;;;;;;;0.10;0.10;;;-1.50;99.90;;;;;;5070653;28;20063;-73
2024/01/19 05:58:15;;;;;;;0.20;0.20;;;-1.50;99.90;;;;;;5034488;28;20489;-73
2024/01/19 06:00:43;;;;;;;0.20;0.20;;;-1.40;99.90;;;;;;5049649;28;20099;-73
2024/01/19 06:03:10;;;;;;;0.10;0.10;;;-1.40;99.90;;;;;;5051720;28;20467;-73
2024/01/19 06:05:37;;;;;;;0.20;0.20;;;-1.40;99.90;;;;;;5046144;28;20044;-72
2024/01/19 06:08:04;;;;;;;0.20;0.20;;;-1.30;99.90;;;;;;5069270;28;20126;-72
2024/01/19 06:10:32;;;;;;;0.10;0.10;;;-1.30;99.90;;;;;;5046343;28;20046;-72
2024/01/19 06:12:59;;;;;;;0.20;0.20;;;-1.20;99.90;;;;;;5065632;28;20048;-72
2024/01/19 06:15:26;;;;;;;0.20;0.20;;;-1.10;99.90;;;;;;5073395;28;20037;-72
2024/01/19 06:17:53;;;;;;;0.20;0.20;;;-1.10;99.90;;;;;;5069048;28;20040;-72
2024/01/19 06:20:20;;;;;;;0.10;0.10;;;-1.10;99.90;;;;;;5048209;28;20129;-72
2024/01/19 06:22:48;;;;;;;0.20;0.20;;;-1.10;99.90;;;;;;5073311;28;20081;-72
2024/01/19 06:25:15;;;;;;;0.15;0.15;;;-1.20;99.90;;;;;;5061825;28;20418;-72
2024/01/19 06:27:42;;;;;;;0.20;0.20;;;-1.30;99.90;;;;;;5080389;28;20045;-72
2024/01/19 06:30:10;;;;;;;0.10;0.10;;;-1.30;99.90;;;;;;5065154;28;20629;-72
2024/01/19 06:32:37;;;;;;;0.10;0.10;;;-1.30;99.90;;;;;;5056463;28;20048;-72
2024/01/19 06:35:04;;;;;;;0.10;0.10;;;-1.40;99.90;;;;;;5059849;28;20558;-73
2024/01/19 06:37:31;;;;;;;0.20;0.20;;;-1.40;99.90;;;;;;5046096;28;20655;-72
2024/01/19 06:39:58;;;;;;;0.20;0.20;;;-1.50;99.90;;;;;;5044003;28;20468;-72
2024/01/19 06:42:26;;;;;;;0.10;0.10;;;-1.50;99.90;;;;;;5064124;28;20207;-72
2024/01/19 06:44:54;;;;;;;0.20;0.20;;;-1.50;99.90;;;;;;5072239;28;20098;-75
2024/01/19 06:47:21;;;;;;;0.20;0.20;;;-1.50;99.90;;;;;;5069366;28;20067;-74
2024/01/19 06:49:48;;;;;;;0.20;0.20;;;-1.40;99.90;;;;;;5063129;28;20507;-75
2024/01/19 06:52:15;;;;;;;0.10;0.10;;;-1.30;99.90;;;;;;5043791;28;20108;-74
2024/01/19 06:54:42;;;;;;;0.20;0.20;;;-1.20;99.90;;;;;;5064352;28;20092;-74
2024/01/19 06:57:10;;;;;;;0.20;0.20;;;-1.10;99.90;;;;;;5061734;28;20057;-74
2024/01/19 06:59:37;;;;;;;0.20;0.20;;;-1.00;99.90;;;;;;5050708;28;20052;-75
2024/01/19 07:02:05;;;;;;;0.10;0.10;;;-0.90;99.90;;;;;;5063457;28;20045;-74
2024/01/19 07:04:32;;;;;;;0.10;0.10;;;-0.90;99.90;;;;;;5065774;28;20049;-75
2024/01/19 07:07:00;;;;;;;0.10;0.10;;;-0.80;99.90;;;;;;5052815;28;20056;-74
2024/01/19 07:09:28;;;;;;;0.10;0.10;;;-0.70;99.90;;;;;;5071204;28;20408;-74
2024/01/19 07:11:55;;;;;;;0.20;0.20;;;-0.70;99.90;;;;;;5047058;28;20055;-74
2024/01/19 07:14:24;;;;;;;0.10;0.10;;;-0.60;99.90;;;;;;5049635;28;20041;-74
2024/01/19 07:16:52;;;;;;;0.13;0.13;;;-0.60;99.90;;;;;;5047451;28;20053;-74
2024/01/19 07:19:19;;;;;;;0.10;0.10;;;-0.60;99.90;;;;;;5044356;28;20570;-74
2024/01/19 07:21:46;;;;;;;0.20;0.20;;;-0.60;99.90;;;;;;5045484;28;20045;-74
2024/01/19 07:24:13;;;;;;;0.10;0.10;;;-0.60;99.90;;;;;;5064357;28;20044;-74
2024/01/19 07:26:41;;;;;;;0.10;0.10;;;-0.70;99.90;;;;;;5070037;28;20067;-74
2024/01/19 07:29:09;;;;;;;0.10;0.10;;;-0.70;99.90;;;;;;5065979;28;20053;-75
2024/01/19 07:31:37;;;;;;;0.10;0.10;;;-0.70;99.90;;;;;;5065004;28;20056;-74
2024/01/19 07:34:04;;;;;;;0.10;0.10;;;-0.70;99.90;;;;;;5048105;28;20053;-74
2024/01/19 07:36:32;;;;;;;0.20;0.20;;;-0.70;99.90;;;;;;5067929;28;24495;-74
2024/01/19 07:38:59;;;;;;;0.20;0.20;;;-0.80;99.90;;;;;;5070750;28;20059;-75
2024/01/19 07:41:26;;;;;;;0.10;0.10;;;-0.80;99.90;;;;;;5046580;28;20144;-75
2024/01/19 07:43:54;;;;;;;0.22;0.22;;;-0.90;99.90;;;;;;5052612;28;21942;-75
2024/01/19 07:46:22;;;;;;;0.20;0.20;;;-0.90;99.90;;;;;;5065333;28;20045;-75
2024/01/19 07:48:49;;;;;;;0.20;0.20;;;-0.80;99.90;;;;;;5070201;28;20049;-75
2024/01/19 07:51:16;;;;;;;0.20;0.20;;;-0.70;99.90;;;;;;5073204;28;20072;-76
2024/01/19 07:53:44;;;;;;;0.20;0.20;;;-0.80;99.90;;;;;;5082100;28;20496;-75
2024/01/19 07:56:11;;;;;;;0.10;0.10;;;-0.70;99.90;;;;;;5052278;28;20055;-75
2024/01/19 07:58:41;;;;;;;0.10;0.10;;;-0.50;99.90;;;;;;5065782;28;20079;-74
2024/01/19 08:01:09;;;;;;;0.20;0.20;;;-0.30;99.90;;;;;;5069981;28;20587;-75
2024/01/19 08:03:37;;;;;;;0.13;0.13;;;-0.10;99.90;;;;;;5063682;28;20069;-75
2024/01/19 08:06:05;;;;;;;0.10;0.10;;;-0.10;99.90;;;;;;5072503;28;20075;-75
2024/01/19 08:08:32;;;;;;;0.15;0.15;;;0.00;99.90;;;;;;5068077;28;20102;-75
2024/01/19 08:11:00;;;;;;;0.20;0.20;;;0.00;99.90;;;;;;5035466;28;20045;-75
2024/01/19 08:13:27;;;;;;;0.20;0.20;;;0.10;99.90;;;;;;5052105;28;20052;-75
2024/01/19 08:15:54;;;;;;;0.10;0.10;;;0.10;99.90;;;;;;5036427;28;20056;-75
2024/01/19 08:18:22;;;;;;;0.20;0.20;;;0.10;99.90;;;;;;5059678;28;20106;-75
2024/01/19 08:20:49;;;;;;;0.20;0.20;;;0.00;99.90;;;;;;5073502;28;20045;-75
2024/01/19 08:23:16;;;;;;;0.20;0.20;;;0.10;99.90;;;;;;5069814;28;20044;-75
2024/01/19 08:25:43;;;;;;;0.13;0.13;;;0.00;99.90;;;;;;5066118;28;20418;-75
2024/01/19 08:28:12;;;;;;;0.20;0.20;;;0.00;99.90;;;;;;5063361;28;20164;-75
2024/01/19 08:30:39;;;;;;;0.10;0.10;;;0.00;99.90;;;;;;5046976;28;20568;-75
2024/01/19 08:33:07;;;;;;;0.20;0.20;;;0.00;99.90;;;;;;5059969;28;20606;-75
2024/01/19 08:35:34;;;;;;;0.20;0.20;;;0.00;99.90;;;;;;5065905;28;20480;-75
2024/01/19 08:38:02;;;;;;;0.20;0.20;;;0.20;99.90;;;;;;5069530;28;20045;-75
2024/01/19 08:40:29;;;;;;;0.20;0.20;;;0.80;99.90;;;;;;5068926;28;20516;-75
2024/01/19 08:42:56;;;;;;;0.28;0.28;;;1.70;99.90;;;;;;5036310;28;20053;-75
2024/01/19 08:45:23;;;;;;;0.10;0.10;;;2.20;99.90;;;;;;5063324;28;20515;-75
2024/01/19 08:47:51;;;;;;;0.10;0.10;;;2.20;99.90;;;;;;5061022;28;20049;-76
2024/01/19 08:50:18;;;;;;;0.20;0.20;;;2.00;99.90;;;;;;5069004;28;20043;-75
2024/01/19 08:52:46;;;;;;;0.20;0.20;;;1.40;99.90;;;;;;5065293;28;20128;-76
2024/01/19 08:55:14;;;;;;;0.20;0.20;;;1.30;99.90;;;;;;5062091;28;20050;-76
2024/01/19 08:57:42;;;;;;;0.28;0.28;;;1.70;99.90;;;;;;5068415;28;20049;-76
2024/01/19 09:00:10;;;;;;;0.20;0.20;;;2.20;99.90;;;;;;5053272;28;20037;-76
2024/01/19 09:02:38;;;;;;;0.30;0.30;;;2.40;99.90;;;;;;5068638;28;20052;-76
2024/01/19 09:05:12;;;;;;;0.30;0.30;;;2.60;99.90;;;;;;5069673;28;20045;-76
2024/01/19 09:07:39;;;;;;;0.20;0.20;;;2.90;99.90;;;;;;5061435;28;20124;-76
2024/01/19 09:10:07;;;;;;;0.28;0.28;;;3.40;99.90;;;;;;5068336;28;20120;-76
2024/01/19 09:12:34;;;;;;;0.30;0.30;;;3.70;99.90;;;;;;5062680;28;20075;-76
2024/01/19 09:15:03;;;;;;;0.20;0.20;;;3.60;99.90;;;;;;5087999;28;20053;-75
2024/01/19 09:17:30;;;;;;;0.30;0.30;;;3.50;99.90;;;;;;5047125;28;20085;-76
2024/01/19 09:19:58;;;;;;;0.30;0.30;;;3.40;99.90;;;;;;5068653;28;20072;-75
2024/01/19 09:22:27;;;;;;;0.20;0.20;;;3.40;99.90;;;;;;5053602;28;20045;-74
2024/01/19 09:24:54;;;;;;;0.28;0.28;;;3.50;99.90;;;;;;5064205;28;20041;-74
2024/01/19 09:27:21;;;;;;;0.22;0.22;;;3.40;99.90;;;;;;5073632;28;20045;-74
2024/01/19 09:29:48;;;;;;;0.30;0.30;;;3.60;99.90;;;;;;5064215;28;20114;-74
2024/01/19 09:32:16;;;;;;;0.30;0.30;;;3.70;99.90;;;;;;5046912;28;20585;-75
2024/01/19 09:34:45;;;;;;;0.30;0.30;;;3.70;99.90;;;;;;5081878;28;25224;-75
2024/01/19 09:37:12;;;;;;;0.32;0.32;;;3.70;99.90;;;;;;5066120;28;20059;-74
2024/01/19 09:39:39;;;;;;;0.38;0.38;;;3.70;99.90;;;;;;5067532;28;20501;-75
2024/01/19 09:42:28;;;;;;;0.22;0.22;;;3.70;99.90;;;;;;5050794;28;20033;-75
2024/01/19 09:45:04;;;;;;;0.47;0.47;;;3.90;99.90;;;;;;5068112;28;20060;-76
2024/01/19 09:47:57;;;;;;;0.30;0.30;;;4.10;99.90;;;;;;5055251;28;20406;-76
2024/01/19 09:50:29;;;;;;;0.30;0.30;;;4.20;99.90;;;;;;5068896;28;20122;-76
2024/01/19 09:53:01;;;;;;;0.30;0.30;;;4.50;99.90;;;;;;5064296;28;20045;-76
2024/01/19 09:55:29;;;;;;;0.35;0.35;;;4.70;99.90;;;;;;5060359;28;20053;-76
2024/01/19 09:57:56;;;;;;;0.40;0.40;;;4.60;99.90;;;;;;5072143;28;20779;-76
2024/01/19 10:00:25;;;;;;;0.30;0.30;;;4.70;99.80;;;;;;5066200;28;20049;-76
2024/01/19 10:02:54;;;;;;;0.30;0.30;;;4.50;99.90;;;;;;5049540;28;20041;-75
2024/01/19 10:05:23;;;;;;;0.30;0.30;;;4.70;99.90;;;;;;5033532;28;20490;-75
2024/01/19 10:07:55;;;;;;;0.30;0.30;;;4.80;99.60;;;;;;5049055;28;20104;-75
2024/01/19 10:10:23;;;;;;;0.30;0.30;;;5.10;99.90;;;;;;5049708;28;20049;-75
2024/01/19 10:12:53;;;;;;;0.28;0.28;;;5.50;98.90;;;;;;5064617;28;20075;-75
2024/01/19 10:15:20;;;;;;;0.30;0.30;;;5.50;97.80;;;;;;5086311;28;20472;-75
2024/01/19 10:17:48;;;;;;;0.30;0.30;;;5.40;97.20;;;;;;5036677;28;20049;-75
2024/01/19 10:20:16;;;;;;;0.20;0.20;;;5.60;96.40;;;;;;5053099;28;20052;-75
2024/01/19 10:22:43;;;;;;;0.20;0.20;;;5.50;96.40;;;;;;5047443;28;20535;-75
2024/01/19 10:25:14;;;;;;;0.30;0.30;;;5.60;96.50;;;;;;5080227;28;20041;-75
2024/01/19 10:27:51;;;;;;;0.20;0.20;;;5.70;96.30;;;;;;5070963;28;20055;-76
2024/01/19 10:30:22;;;;;;;0.30;0.30;;;6.10;95.30;;;;;;5066170;28;20103;-76
2024/01/19 10:32:52;;;;;;;0.20;0.20;;;6.10;94.20;;;;;;5065106;28;20106;-75
2024/01/19 10:35:22;;;;;;;0.30;0.30;;;5.80;94.90;;;;;;5068876;28;20116;-75
2024/01/19 10:37:50;;;;;;;0.30;0.30;;;5.90;94.60;;;;;;5063032;28;20049;-75
2024/01/19 10:40:17;;;;;;;0.20;0.20;;;5.90;94.30;;;;;;5066348;28;20473;-76
2024/01/19 10:42:45;;;;;;;0.20;0.20;;;6.20;94.60;;;;;;5071929;28;20496;-75
2024/01/19 10:45:21;;;;;;;0.28;0.28;;;6.20;93.80;;;;;;5067575;28;20044;-76
2024/01/19 10:47:57;;;;;;;0.20;0.20;;;6.00;93.90;;;;;;5055800;28;20052;-76
2024/01/19 10:50:26;;;;;;;0.20;0.20;;;5.90;94.40;;;;;;5072435;28;20071;-75
2024/01/19 10:52:56;;;;;;;0.30;0.30;;;5.90;94.30;;;;;;5062585;28;20044;-75
2024/01/19 10:55:25;;;;;;;0.20;0.20;;;6.10;93.80;;;;;;5067349;28;20108;-75
2024/01/19 10:57:54;;;;;;;0.20;0.20;;;5.90;94.20;;;;;;5057455;28;20099;-75
2024/01/19 11:00:25;;;;;;;0.35;0.35;;;5.80;94.20;;;;;;5069579;28;20049;-75
2024/01/19 11:03:00;;;;;;;0.20;0.20;;;6.00;94.50;;;;;;5065954;28;20051;-75
2024/01/19 11:05:28;;;;;;;0.20;0.20;;;5.80;94.10;;;;;;5069737;28;20707;-75
2024/01/19 11:08:00;;;;;;;0.20;0.20;;;5.90;94.80;;;;;;5066177;28;20068;-75
2024/01/19 11:10:29;;;;;;;0.20;0.20;;;6.10;93.80;;;;;;5063953;28;20045;-75
2024/01/19 11:12:59;;;;;;;0.10;0.10;;;6.00;93.40;;;;;;5074043;28;20520;-75
2024/01/19 11:15:44;;;;;;;0.10;0.10;;;6.00;94.10;;;;;;5075100;28;20516;-75
2024/01/19 11:18:11;;;;;;;;;;;6.10;93.50;;;;;;5077425;28;20052;-75
2024/01/19 11:20:38;;;;;;;0.30;0.30;;;6.20;93.50;;;;;;5082808;28;19925;-75
2024/01/19 11:23:07;;;;;;;0.20;0.20;;;6.20;93.50;;;;;;5039399;28;20053;-74
2024/01/19 11:26:09;;;;;;;0.15;0.15;;;6.00;93.00;;;;;;5053066;28;20122;-75
2024/01/19 11:29:03;;;;;;;0.10;0.10;;;5.80;93.70;;;;;;5070444;28;20059;-75
2024/01/19 11:31:36;;;;;;;0.30;0.30;;;6.10;93.70;;;;;;5068677;28;20047;-75
2024/01/19 11:34:03;;;;;;;0.20;0.20;;;6.30;93.20;;;;;;5069859;28;20041;-75
2024/01/19 11:36:39;;;;;;;0.10;0.10;;;6.00;93.20;;;;;;5071485;28;20068;-75
2024/01/19 11:39:10;;;;;;;0.20;0.20;;;5.80;93.40;;;;;;5065129;28;20602;-74
2024/01/19 11:41:41;;;;;;;0.10;0.10;;;5.80;93.90;;;;;;5069711;28;20055;-74
2024/01/19 11:44:12;;;;;;;0.20;0.20;;;5.80;94.10;;;;;;5068755;28;20063;-74
2024/01/19 11:46:43;;;;;;;0.20;0.20;;;5.90;93.20;;;;;;5067887;28;20095;-75
2024/01/19 11:49:32;;;;;;;0.20;0.20;;;5.90;94.20;;;;;;5066423;28;20401;-74
2024/01/19 11:52:01;;;;;;;0.17;0.17;;;6.00;93.40;;;;;;5064744;28;20041;-75
2024/01/19 11:54:32;;;;;;;0.20;0.20;;;5.90;93.40;;;;;;5064650;28;20083;-75
2024/01/19 11:57:18;;;;;;;0.13;0.13;;;6.10;93.60;;;;;;5069593;28;20048;-74
2024/01/19 11:59:47;;;;;;;0.10;0.10;;;5.90;93.50;;;;;;5068131;28;20060;-75
2024/01/19 12:02:21;;;;;;;0.10;0.10;;;6.20;93.10;;;;;;5066043;28;20045;-74
2024/01/19 12:04:48;;;;;;;;;;;6.20;92.30;;;;;;5052253;28;20550;-75
2024/01/19 12:07:20;;;;;;;0.20;0.20;;;5.70;93.30;;;;;;5063400;28;23318;-75
2024/01/19 12:10:10;;;;;;;0.20;0.20;;;5.80;93.50;;;;;;5069005;28;20052;-74
2024/01/19 12:12:39;;;;;;;0.20;0.20;;;6.00;93.50;;;;;;5078683;28;20053;-74
2024/01/19 12:15:08;;;;;;;0.20;0.20;;;5.90;93.00;;;;;;5068153;28;20053;-74
2024/01/19 12:17:40;;;;;;;0.10;0.10;;;6.10;92.90;;;;;;5067910;28;20114;-74
2024/01/19 12:20:09;;;;;;;0.10;0.10;;;6.00;93.00;;;;;;5058965;28;20508;-74
2024/01/19 12:22:37;;;;;;;0.20;0.20;;;6.10;93.00;;;;;;5059951;28;20103;-74
2024/01/19 12:25:15;;;;;;;0.10;0.10;;;6.00;93.20;;;;;;5049871;28;20149;-74
2024/01/19 12:27:43;;;;;;;0.20;0.20;;;5.80;94.30;;;;;;5059227;28;20166;-74
2024/01/19 12:30:15;;;;;;;0.20;0.20;;;5.80;94.20;;;;;;5066613;28;20569;-74
2024/01/19 12:32:43;;;;;;;0.10;0.10;;;5.70;94.60;;;;;;5052711;28;20048;-74
2024/01/19 12:35:11;;;;;;;0.20;0.20;;;5.80;95.40;;;;;;5074326;28;20504;-74
2024/01/19 12:37:39;;;;;;;0.20;0.20;;;5.90;94.40;;;;;;5050453;28;20131;-74
2024/01/19 12:40:17;;;;;;;0.20;0.20;;;6.10;94.20;;;;;;5070345;28;20056;-74
2024/01/19 12:42:44;;;;;;;0.20;0.20;;;5.90;94.20;;;;;;5058137;28;20049;-74
2024/01/19 12:45:16;;;;;;;0.20;0.20;;;6.10;94.30;;;;;;5064951;28;20332;-74
2024/01/19 12:47:48;;;;;;;0.20;0.20;;;6.10;94.10;;;;;;5055230;28;20580;-74
2024/01/19 12:50:16;;;;;;;0.15;0.15;;;5.90;94.10;;;;;;5038284;28;20055;-74
2024/01/19 12:52:48;;;;;;;0.20;0.20;;;5.90;94.30;;;;;;5067559;28;20049;-74
2024/01/19 12:55:25;;;;;;;0.20;0.20;;;6.10;94.10;;;;;;5066552;28;20104;-74
2024/01/19 12:57:52;;;;;;;0.17;0.17;;;6.10;93.90;;;;;;5064164;28;20040;-74
2024/01/19 13:00:24;;;;;;;0.17;0.17;;;6.10;94.10;;;;;;5067243;28;20053;-74